Time;durP1;ratioP1;P1;durP2;ratioP2;P2;SDS_P1;SDS_P2;PMS_P1;PMS_P2;Temp;Humidity;BMP_temperature;BMP_pressure;BME280_temperature;BME280_humidity;BME280_pressure;Samples;Min_cycle;Max_cycle;Signal;HPM_P1;HPM_P2
2024/03/08 00:00:18;;;;;;;29.23;14.68;;;;;;;;;;5003332;28;20029;-78
2024/03/08 00:02:45;;;;;;;26.65;14.25;;;;;;;;;;5009991;28;20030;-79
2024/03/08 00:05:12;;;;;;;26.30;13.55;;;;;;;;;;5025974;28;20045;-81
2024/03/08 00:07:47;;;;;;;30.42;15.80;;;;;;;;;;5021273;28;20141;-79
2024/03/08 00:10:16;;;;;;;26.83;15.13;;;;;;;;;;4996511;28;20037;-80
2024/03/08 00:12:49;;;;;;;34.60;17.38;;;;;;;;;;5002804;28;20444;-80
2024/03/08 00:15:16;;;;;;;30.33;15.40;;;;;;;;;;5000574;28;20459;-79
2024/03/08 00:17:44;;;;;;;29.00;15.52;;;;;;;;;;4997442;28;20096;-79
2024/03/08 00:20:13;;;;;;;29.33;15.30;;;;;;;;;;4983701;28;20088;-80
2024/03/08 00:23:03;;;;;;;27.40;15.00;;;;;;;;;;4982440;28;20099;-78
2024/03/08 00:25:33;;;;;;;28.08;14.32;;;;;;;;;;4974702;28;20026;-79
2024/03/08 00:28:00;;;;;;;29.13;15.88;;;;;;;;;;5002575;28;20556;-79
2024/03/08 00:30:32;;;;;;;30.40;14.07;;;;;;;;;;5030976;28;20425;-79
2024/03/08 00:32:59;;;;;;;31.83;15.32;;;;;;;;;;5009136;28;20045;-79
2024/03/08 00:35:26;;;;;;;31.88;14.95;;;;;;;;;;5017709;28;20042;-78
2024/03/08 00:37:52;;;;;;;30.48;14.23;;;;;;;;;;5001172;28;20042;-79
2024/03/08 00:40:22;;;;;;;31.75;14.75;;;;;;;;;;4999645;28;20033;-80
2024/03/08 00:42:50;;;;;;;32.25;15.90;;;;;;;;;;5000974;28;20126;-78
2024/03/08 00:45:16;;;;;;;33.15;15.25;;;;;;;;;;5002254;28;20041;-80
2024/03/08 00:47:46;;;;;;;26.20;14.63;;;;;;;;;;5006425;28;20041;-79
2024/03/08 00:50:12;;;;;;;32.83;16.55;;;;;;;;;;5035638;28;20017;-80
2024/03/08 00:52:42;;;;;;;28.10;15.60;;;;;;;;;;5024646;28;20106;-79
2024/03/08 00:55:12;;;;;;;33.55;15.82;;;;;;;;;;5035226;28;20041;-79
2024/03/08 00:57:38;;;;;;;35.72;15.95;;;;;;;;;;5004680;28;20049;-79
2024/03/08 01:00:12;;;;;;;30.45;14.35;;;;;;;;;;5025274;28;20033;-79
2024/03/08 01:03:06;;;;;;;29.40;14.88;;;;;;;;;;5039904;28;20034;-78
2024/03/08 01:05:39;;;;;;;31.35;16.20;;;;;;;;;;5028359;28;20109;-78
2024/03/08 01:08:07;;;;;;;28.60;15.00;;;;;;;;;;5039214;28;20034;-78
2024/03/08 01:10:36;;;;;;;;;;;;;;;;;;4988308;28;20035;-79
2024/03/08 01:13:39;;;;;;;27.73;14.77;;;;;;;;;;5026419;28;19909;-78
2024/03/08 01:16:06;;;;;;;29.05;14.70;;;;;;;;;;4992551;28;20057;-79
2024/03/08 01:18:36;;;;;;;29.73;14.23;;;;;;;;;;5016612;28;20056;-79
2024/03/08 01:21:06;;;;;;;;;;;;;;;;;;5025951;28;20025;-78
2024/03/08 01:23:31;;;;;;;27.83;13.60;;;;;;;;;;5017064;28;19933;-78
2024/03/08 01:26:00;;;;;;;28.77;14.00;;;;;;;;;;5015498;28;20121;-77
2024/03/08 01:28:34;;;;;;;32.92;15.93;;;;;;;;;;5022207;28;20137;-79
2024/03/08 01:31:05;;;;;;;30.92;15.75;;;;;;;;;;5029802;28;20049;-78
2024/03/08 01:33:34;;;;;;;35.22;15.48;;;;;;;;;;4989121;28;20045;-80
2024/03/08 01:36:00;;;;;;;34.17;16.25;;;;;;;;;;5000876;28;20044;-77
2024/03/08 01:38:36;;;;;;;32.00;15.95;;;;;;;;;;5017618;28;20050;-79
2024/03/08 01:41:12;;;;;;;30.52;14.77;;;;;;;;;;5025253;28;20033;-78
2024/03/08 01:43:45;;;;;;;29.23;14.55;;;;;;;;;;5033449;28;20049;-79
2024/03/08 01:46:12;;;;;;;29.08;14.63;;;;;;;;;;5020357;28;20029;-78
2024/03/08 01:48:40;;;;;;;;;;;;;;;;;;5004737;28;20309;-79
2024/03/08 01:51:07;;;;;;;30.00;14.73;;;;;;;;;;5020388;28;19945;-78
2024/03/08 01:53:50;;;;;;;33.83;15.32;;;;;;;;;;5006046;28;20041;-79
2024/03/08 01:56:33;;;;;;;28.42;14.88;;;;;;;;;;4989245;28;20042;-79
2024/03/08 01:59:10;;;;;;;33.35;16.73;;;;;;;;;;5009422;28;20021;-78
2024/03/08 02:01:41;;;;;;;29.23;15.77;;;;;;;;;;5032416;28;20033;-78
2024/03/08 02:04:33;;;;;;;30.48;15.85;;;;;;;;;;5025603;28;20105;-79
2024/03/08 02:07:00;;;;;;;31.23;15.30;;;;;;;;;;5003069;28;20038;-79
2024/03/08 02:09:25;;;;;;;29.50;15.88;;;;;;;;;;4991545;28;20051;-78
2024/03/08 02:11:56;;;;;;;28.33;15.18;;;;;;;;;;5022819;28;20041;-78
2024/03/08 02:14:24;;;;;;;33.13;16.05;;;;;;;;;;5019437;28;20033;-78
2024/03/08 02:16:54;;;;;;;33.75;15.73;;;;;;;;;;5004096;28;20041;-79
2024/03/08 02:19:21;;;;;;;29.13;14.85;;;;;;;;;;4988536;28;20140;-79
2024/03/08 02:21:47;;;;;;;30.83;14.57;;;;;;;;;;5014337;28;20033;-79
2024/03/08 02:24:23;;;;;;;30.30;15.70;;;;;;;;;;5012123;28;20419;-79
2024/03/08 02:26:53;;;;;;;29.88;15.68;;;;;;;;;;5029224;28;20061;-80
2024/03/08 02:29:23;;;;;;;32.35;15.57;;;;;;;;;;5011150;28;20405;-80
2024/03/08 02:31:52;;;;;;;28.90;14.85;;;;;;;;;;4986839;28;20102;-80
2024/03/08 02:34:21;;;;;;;30.63;16.20;;;;;;;;;;4996443;28;20065;-80
2024/03/08 02:36:49;;;;;;;33.13;16.15;;;;;;;;;;5002097;28;20044;-78
2024/03/08 02:39:22;;;;;;;32.88;15.52;;;;;;;;;;5015637;28;20045;-77
2024/03/08 02:41:50;;;;;;;31.58;16.25;;;;;;;;;;5006145;28;20030;-79
2024/03/08 02:44:17;;;;;;;31.40;15.75;;;;;;;;;;5016743;28;20072;-79
2024/03/08 02:46:47;;;;;;;29.60;15.75;;;;;;;;;;5002927;28;20049;-79
2024/03/08 02:49:15;;;;;;;34.90;16.10;;;;;;;;;;5004774;28;20034;-79
2024/03/08 02:51:41;;;;;;;29.42;14.68;;;;;;;;;;5018783;28;20493;-79
2024/03/08 02:54:10;;;;;;;32.28;15.30;;;;;;;;;;5030506;28;20532;-80
2024/03/08 02:56:37;;;;;;;31.05;14.70;;;;;;;;;;5007858;28;20034;-79
2024/03/08 02:59:03;;;;;;;30.65;15.23;;;;;;;;;;5036260;28;20246;-78
2024/03/08 03:01:33;;;;;;;30.27;15.73;;;;;;;;;;5004428;28;20038;-79
2024/03/08 03:04:02;;;;;;;34.17;15.43;;;;;;;;;;5038069;28;20404;-78
2024/03/08 03:06:31;;;;;;;31.23;15.95;;;;;;;;;;5004155;28;20030;-78
2024/03/08 03:08:59;;;;;;;29.52;14.98;;;;;;;;;;4992146;28;20072;-78
2024/03/08 03:11:27;;;;;;;26.75;14.40;;;;;;;;;;5032048;28;20085;-78
2024/03/08 03:14:21;;;;;;;30.08;14.57;;;;;;;;;;5016364;28;20017;-80
2024/03/08 03:16:49;;;;;;;30.27;14.82;;;;;;;;;;5005939;28;20044;-79
2024/03/08 03:19:18;;;;;;;29.25;14.60;;;;;;;;;;4993123;28;20112;-79
2024/03/08 03:21:47;;;;;;;27.52;13.70;;;;;;;;;;5017667;28;20136;-78
2024/03/08 03:24:16;;;;;;;31.80;15.07;;;;;;;;;;5002685;28;20113;-79
2024/03/08 03:26:43;;;;;;;29.25;14.45;;;;;;;;;;5002969;28;20499;-79
2024/03/08 03:29:17;;;;;;;30.13;14.88;;;;;;;;;;5004268;28;20046;-79
2024/03/08 03:31:52;;;;;;;30.80;14.55;;;;;;;;;;5008700;28;20034;-79
2024/03/08 03:34:23;;;;;;;30.08;14.35;;;;;;;;;;5025072;28;20021;-78
2024/03/08 03:36:56;;;;;;;33.78;14.25;;;;;;;;;;4991848;28;20049;-80
2024/03/08 03:39:24;;;;;;;28.88;14.73;;;;;;;;;;5040398;28;20056;-79
2024/03/08 03:41:51;;;;;;;32.83;14.68;;;;;;;;;;5033289;28;20053;-79
2024/03/08 03:44:26;;;;;;;30.42;14.77;;;;;;;;;;5015729;28;20022;-79
2024/03/08 03:46:53;;;;;;;31.20;16.20;;;;;;;;;;5042968;28;20076;-80
2024/03/08 03:49:45;;;;;;;31.27;15.02;;;;;;;;;;5035591;28;20064;-79
2024/03/08 03:52:22;;;;;;;29.38;13.98;;;;;;;;;;5035243;28;20018;-79
2024/03/08 03:54:49;;;;;;;28.50;14.75;;;;;;;;;;5019100;28;20034;-80
2024/03/08 03:57:15;;;;;;;42.65;20.13;;;;;;;;;;5009152;28;20069;-79
2024/03/08 03:59:43;;;;;;;36.80;17.98;;;;;;;;;;5026761;28;20095;-79
2024/03/08 04:02:11;;;;;;;31.00;15.18;;;;;;;;;;5019695;28;20172;-79
2024/03/08 04:04:41;;;;;;;28.95;14.65;;;;;;;;;;5020344;28;20039;-80
2024/03/08 04:07:12;;;;;;;33.75;14.90;;;;;;;;;;4986036;28;20046;-79
2024/03/08 04:09:45;;;;;;;39.78;15.05;;;;;;;;;;4988620;28;20033;-80
2024/03/08 04:12:15;;;;;;;37.70;15.88;;;;;;;;;;5017301;28;20117;-80
2024/03/08 04:14:45;;;;;;;33.83;15.63;;;;;;;;;;5017057;28;20514;-80
2024/03/08 04:17:29;;;;;;;28.05;15.23;;;;;;;;;;5009292;28;20056;-80
2024/03/08 04:19:56;;;;;;;31.45;14.70;;;;;;;;;;5018637;28;20029;-79
2024/03/08 04:22:24;;;;;;;31.23;15.02;;;;;;;;;;5001778;28;20041;-78
2024/03/08 04:25:07;;;;;;;30.23;13.93;;;;;;;;;;5002614;28;20536;-78
2024/03/08 04:27:47;;;;;;;29.20;13.52;;;;;;;;;;5018430;28;20056;-80
2024/03/08 04:30:18;;;;;;;27.67;14.10;;;;;;;;;;5017526;28;20041;-80
2024/03/08 04:32:52;;;;;;;32.05;14.57;;;;;;;;;;5001034;28;20100;-79
2024/03/08 04:35:45;;;;;;;33.22;15.32;;;;;;;;;;5003710;28;20042;-78
2024/03/08 04:38:13;;;;;;;27.42;14.25;;;;;;;;;;4988079;28;20065;-78
2024/03/08 04:40:41;;;;;;;;;;;;;;;;;;5005318;28;20030;-79
2024/03/08 04:43:08;;;;;;;32.60;13.77;;;;;;;;;;5029600;28;19909;-80
2024/03/08 04:45:37;;;;;;;33.35;15.18;;;;;;;;;;5014230;28;20037;-79
2024/03/08 04:48:08;;;;;;;29.08;14.60;;;;;;;;;;5019889;28;20071;-80
2024/03/08 04:50:41;;;;;;;39.78;16.50;;;;;;;;;;5005274;28;20033;-79
2024/03/08 04:53:20;;;;;;;30.40;14.45;;;;;;;;;;5004738;28;20053;-78
2024/03/08 04:55:47;;;;;;;30.70;15.13;;;;;;;;;;5017930;28;20370;-80
2024/03/08 04:58:14;;;;;;;38.30;16.13;;;;;;;;;;4986744;28;20037;-80
2024/03/08 05:00:42;;;;;;;29.70;14.07;;;;;;;;;;5004286;28;20029;-79
2024/03/08 05:03:14;;;;;;;31.75;14.32;;;;;;;;;;4986905;28;20041;-79
2024/03/08 05:06:08;;;;;;;28.63;14.75;;;;;;;;;;5037003;23;20069;-80
2024/03/08 05:08:34;;;;;;;32.17;15.23;;;;;;;;;;5000268;28;20034;-79
2024/03/08 05:11:03;;;;;;;31.02;14.65;;;;;;;;;;4995284;28;20061;-78
2024/03/08 05:13:30;;;;;;;31.35;14.55;;;;;;;;;;5019744;28;20041;-79
2024/03/08 05:15:58;;;;;;;28.20;14.68;;;;;;;;;;4984705;28;20069;-78
2024/03/08 05:18:23;;;;;;;33.78;15.32;;;;;;;;;;4992016;28;20038;-79
2024/03/08 05:20:51;;;;;;;34.90;15.38;;;;;;;;;;4987104;28;20030;-78
2024/03/08 05:23:19;;;;;;;31.35;14.63;;;;;;;;;;5013482;28;20463;-78
2024/03/08 05:25:49;;;;;;;29.23;15.45;;;;;;;;;;4988080;28;20113;-79
2024/03/08 05:28:14;;;;;;;;;;;;;;;;;;4985075;28;20030;-80
2024/03/08 05:30:40;;;;;;;27.92;14.00;;;;;;;;;;4992921;28;20370;-79
2024/03/08 05:33:10;;;;;;;33.80;15.10;;;;;;;;;;4977138;28;20189;-79
2024/03/08 05:35:36;;;;;;;;;;;;;;;;;;4991408;28;20037;-81
2024/03/08 05:38:02;;;;;;;31.27;13.88;;;;;;;;;;5019314;28;19910;-79
2024/03/08 05:40:31;;;;;;;33.78;16.33;;;;;;;;;;4984361;28;20046;-79
2024/03/08 05:42:58;;;;;;;34.63;15.55;;;;;;;;;;4998883;28;20080;-78
2024/03/08 05:45:25;;;;;;;34.08;15.02;;;;;;;;;;4991469;28;20028;-79
2024/03/08 05:47:51;;;;;;;31.48;14.98;;;;;;;;;;5006490;28;20034;-78
2024/03/08 05:50:17;;;;;;;33.03;15.38;;;;;;;;;;4995714;28;20022;-79
2024/03/08 05:52:43;;;;;;;33.17;15.00;;;;;;;;;;4992485;28;20037;-78
2024/03/08 05:55:10;;;;;;;32.17;15.27;;;;;;;;;;5014411;28;20439;-79
2024/03/08 05:57:40;;;;;;;37.85;18.10;;;;;;;;;;4972783;28;20034;-79
2024/03/08 06:00:06;;;;;;;32.83;15.55;;;;;;;;;;4991257;28;20099;-77
2024/03/08 06:02:40;;;;;;;35.05;15.82;;;;;;;;;;4984952;28;20561;-78
2024/03/08 06:05:10;;;;;;;37.13;16.27;;;;;;;;;;4966251;28;20084;-77
2024/03/08 06:07:36;;;;;;;34.72;16.30;;;;;;;;;;4973557;28;20446;-79
2024/03/08 06:10:01;;;;;;;40.22;16.02;;;;;;;;;;4988055;28;20038;-80
2024/03/08 06:12:32;;;;;;;36.22;16.42;;;;;;;;;;4991676;28;20049;-80
2024/03/08 06:14:58;;;;;;;34.65;16.15;;;;;;;;;;5010744;28;20113;-79
2024/03/08 06:17:25;;;;;;;33.45;14.85;;;;;;;;;;5013718;28;20059;-78
2024/03/08 06:19:54;;;;;;;34.42;16.63;;;;;;;;;;5013898;28;20026;-79
2024/03/08 06:22:21;;;;;;;32.50;15.60;;;;;;;;;;5029863;28;20090;-78
2024/03/08 06:24:47;;;;;;;33.63;16.60;;;;;;;;;;5022174;28;20022;-78
2024/03/08 06:27:14;;;;;;;33.92;16.08;;;;;;;;;;5022530;28;20034;-79
2024/03/08 06:29:41;;;;;;;44.47;17.08;;;;;;;;;;5016755;28;20042;-80
2024/03/08 06:32:06;;;;;;;37.45;16.63;;;;;;;;;;4972155;28;20046;-80
2024/03/08 06:34:35;;;;;;;35.95;17.27;;;;;;;;;;4975741;28;20046;-79
2024/03/08 06:37:01;;;;;;;35.83;15.75;;;;;;;;;;4964176;28;20047;-79
2024/03/08 06:39:28;;;;;;;37.30;17.48;;;;;;;;;;4979406;28;20080;-78
2024/03/08 06:41:54;;;;;;;34.05;17.17;;;;;;;;;;4995598;28;20034;-79
2024/03/08 06:44:21;;;;;;;35.63;17.15;;;;;;;;;;4999576;28;20055;-79
2024/03/08 06:46:48;;;;;;;34.85;16.13;;;;;;;;;;5001114;28;20660;-78
2024/03/08 06:49:13;;;;;;;35.67;16.02;;;;;;;;;;5001069;28;20038;-79
2024/03/08 06:51:40;;;;;;;35.75;17.20;;;;;;;;;;4972682;28;20077;-80
2024/03/08 06:54:08;;;;;;;35.90;17.02;;;;;;;;;;5007742;28;20089;-79
2024/03/08 06:56:37;;;;;;;32.78;17.00;;;;;;;;;;5000793;28;20038;-78
2024/03/08 06:59:03;;;;;;;35.78;16.88;;;;;;;;;;5003906;28;20049;-79
2024/03/08 07:01:34;;;;;;;37.75;17.55;;;;;;;;;;5019556;28;20113;-80
2024/03/08 07:04:02;;;;;;;33.03;15.68;;;;;;;;;;5018987;28;20023;-79
2024/03/08 07:06:28;;;;;;;33.33;17.08;;;;;;;;;;5007804;28;20021;-79
2024/03/08 07:08:54;;;;;;;35.80;17.35;;;;;;;;;;4998001;28;20033;-78
2024/03/08 07:11:19;;;;;;;33.00;17.30;;;;;;;;;;4987668;28;20034;-78
2024/03/08 07:13:48;;;;;;;43.42;18.02;;;;;;;;;;4990445;28;20038;-77
2024/03/08 07:16:15;;;;;;;35.97;17.38;;;;;;;;;;5006187;28;20025;-79
2024/03/08 07:18:43;;;;;;;36.50;17.23;;;;;;;;;;4998549;28;20034;-79
2024/03/08 07:21:10;;;;;;;33.53;17.52;;;;;;;;;;4993813;28;20496;-79
2024/03/08 07:26:20;;;;;;;36.03;16.55;;;;;;;;;;4989126;28;20030;-80
2024/03/08 07:28:54;;;;;;;38.80;17.38;;;;;;;;;;5004129;28;20038;-80
2024/03/08 07:31:26;;;;;;;40.33;17.80;;;;;;;;;;4986338;28;20536;-79
2024/03/08 07:33:58;;;;;;;39.15;17.55;;;;;;;;;;4985424;28;20026;-79
2024/03/08 07:36:24;;;;;;;37.78;17.30;;;;;;;;;;4981483;28;20480;-79
2024/03/08 07:38:53;;;;;;;38.03;18.35;;;;;;;;;;4997325;28;20030;-80
2024/03/08 07:41:20;;;;;;;38.85;17.40;;;;;;;;;;5013552;28;20022;-79
2024/03/08 07:43:45;;;;;;;36.60;17.40;;;;;;;;;;4972438;28;20149;-81
2024/03/08 07:46:12;;;;;;;36.92;17.58;;;;;;;;;;4977540;28;20091;-78
2024/03/08 07:48:39;;;;;;;37.53;17.45;;;;;;;;;;4961636;28;20489;-79
2024/03/08 07:51:05;;;;;;;37.17;17.35;;;;;;;;;;4969515;28;20041;-79
2024/03/08 07:53:31;;;;;;;39.00;18.13;;;;;;;;;;4976097;28;20033;-79
2024/03/08 07:55:57;;;;;;;34.85;17.13;;;;;;;;;;4986512;28;20026;-79
2024/03/08 07:58:23;;;;;;;33.30;16.17;;;;;;;;;;4987934;28;20409;-78
2024/03/08 08:00:50;;;;;;;35.17;18.20;;;;;;;;;;4964167;28;20030;-78
2024/03/08 08:03:20;;;;;;;36.92;17.48;;;;;;;;;;4983693;28;20422;-78
2024/03/08 08:05:46;;;;;;;34.53;17.88;;;;;;;;;;4984039;28;20456;-78
2024/03/08 08:08:14;;;;;;;42.65;18.05;;;;;;;;;;4968451;28;20030;-79
2024/03/08 08:10:40;;;;;;;35.45;16.88;;;;;;;;;;5001158;28;20049;-78
2024/03/08 08:13:09;;;;;;;32.85;17.05;;;;;;;;;;4977834;28;20133;-80
2024/03/08 08:15:35;;;;;;;37.35;18.75;;;;;;;;;;4977250;28;20046;-78
2024/03/08 08:18:02;;;;;;;38.33;19.58;;;;;;;;;;5005836;28;20037;-79
2024/03/08 08:20:28;;;;;;;40.15;19.02;;;;;;;;;;4988318;28;20067;-80
2024/03/08 08:22:55;;;;;;;33.38;16.48;;;;;;;;;;5012134;28;20022;-78
2024/03/08 08:25:22;;;;;;;45.22;18.65;;;;;;;;;;4979152;28;20034;-79
2024/03/08 08:27:48;;;;;;;35.60;17.58;;;;;;;;;;4986260;28;20037;-79
2024/03/08 08:30:15;;;;;;;38.60;18.90;;;;;;;;;;4993523;28;20034;-78
2024/03/08 08:32:44;;;;;;;37.15;17.67;;;;;;;;;;4975080;28;20030;-80
2024/03/08 08:35:12;;;;;;;36.28;19.05;;;;;;;;;;4984246;28;20042;-80
2024/03/08 08:37:41;;;;;;;40.25;18.40;;;;;;;;;;5009669;28;20038;-80
2024/03/08 08:40:09;;;;;;;41.95;19.33;;;;;;;;;;4972642;28;20050;-79
2024/03/08 08:42:38;;;;;;;37.47;17.48;;;;;;;;;;4977702;28;20121;-78
2024/03/08 08:45:10;;;;;;;34.10;16.67;;;;;;;;;;4995995;28;20038;-78
2024/03/08 08:47:37;;;;;;;37.90;17.85;;;;;;;;;;5006380;28;20031;-79
2024/03/08 08:50:05;;;;;;;34.53;17.02;;;;;;;;;;5031129;28;20061;-80
2024/03/08 08:52:31;;;;;;;40.45;18.05;;;;;;;;;;5014913;28;20035;-80
2024/03/08 08:54:58;;;;;;;36.08;18.80;;;;;;;;;;4997802;28;20023;-81
2024/03/08 08:57:24;;;;;;;39.53;17.70;;;;;;;;;;4968952;28;20034;-80
2024/03/08 08:59:51;;;;;;;39.33;18.50;;;;;;;;;;4987220;28;20038;-79
2024/03/08 09:02:20;;;;;;;40.35;18.23;;;;;;;;;;4988549;28;20036;-81
2024/03/08 09:04:47;;;;;;;36.33;16.98;;;;;;;;;;4987702;28;20121;-79
2024/03/08 09:07:13;;;;;;;35.88;16.92;;;;;;;;;;4992564;28;20045;-79
2024/03/08 09:09:39;;;;;;;38.55;17.95;;;;;;;;;;5005487;28;20026;-80
2024/03/08 09:12:05;;;;;;;32.70;17.70;;;;;;;;;;4977028;28;20141;-80
2024/03/08 09:14:39;;;;;;;37.10;18.25;;;;;;;;;;4976185;28;20035;-80
2024/03/08 09:17:08;;;;;;;37.28;17.67;;;;;;;;;;4970639;28;20030;-79
2024/03/08 09:19:35;;;;;;;36.05;17.08;;;;;;;;;;4981329;28;20125;-80
2024/03/08 09:22:00;;;;;;;42.92;18.73;;;;;;;;;;4987728;28;20030;-78
2024/03/08 09:24:25;;;;;;;37.13;19.08;;;;;;;;;;4993205;28;20037;-79
2024/03/08 09:26:52;;;;;;;37.75;17.83;;;;;;;;;;5007121;28;20030;-78
2024/03/08 09:29:20;;;;;;;35.47;18.38;;;;;;;;;;5016261;28;20649;-79
2024/03/08 09:31:46;;;;;;;40.97;16.67;;;;;;;;;;4983782;28;20033;-80
2024/03/08 09:34:11;;;;;;;37.28;17.08;;;;;;;;;;4996702;28;20037;-80
2024/03/08 09:36:37;;;;;;;39.97;17.30;;;;;;;;;;4970693;28;20093;-79
2024/03/08 09:39:03;;;;;;;40.40;17.63;;;;;;;;;;4996962;28;20133;-79
2024/03/08 09:41:30;;;;;;;32.42;17.27;;;;;;;;;;4969493;28;20113;-80
2024/03/08 09:43:59;;;;;;;36.63;17.63;;;;;;;;;;4990530;28;20026;-79
2024/03/08 09:46:25;;;;;;;37.08;17.67;;;;;;;;;;4970390;28;20023;-80
2024/03/08 09:48:51;;;;;;;38.10;17.08;;;;;;;;;;5004849;28;20046;-81
2024/03/08 09:51:17;;;;;;;36.67;17.20;;;;;;;;;;4996782;28;20030;-78
2024/03/08 09:53:43;;;;;;;38.22;17.08;;;;;;;;;;5012179;28;20021;-79
2024/03/08 09:56:08;;;;;;;36.05;17.33;;;;;;;;;;5004118;28;20054;-80
2024/03/08 10:01:04;;;;;;;31.83;15.20;;;;;;;;;;4995626;28;20116;-79
2024/03/08 10:03:35;;;;;;;34.33;16.20;;;;;;;;;;4999650;28;20437;-80
2024/03/08 10:06:02;;;;;;;33.85;16.58;;;;;;;;;;4996393;28;20038;-80
2024/03/08 10:08:29;;;;;;;33.38;16.17;;;;;;;;;;4984940;28;20132;-79
2024/03/08 10:10:55;;;;;;;36.90;16.95;;;;;;;;;;5006463;28;20114;-80
2024/03/08 10:13:20;;;;;;;32.33;17.10;;;;;;;;;;5001436;28;20363;-79
2024/03/08 10:15:46;;;;;;;36.90;17.08;;;;;;;;;;4978911;28;20030;-79
2024/03/08 10:18:14;;;;;;;35.30;16.63;;;;;;;;;;4994564;28;20034;-79
2024/03/08 10:20:41;;;;;;;31.58;16.83;;;;;;;;;;4996102;28;20023;-78
2024/03/08 10:23:10;;;;;;;30.40;16.33;;;;;;;;;;4979233;28;20069;-79
2024/03/08 10:25:39;;;;;;;29.33;15.50;;;;;;;;;;5001479;28;20481;-79
2024/03/08 10:28:05;;;;;;;32.88;16.23;;;;;;;;;;4995603;28;20080;-79
2024/03/08 10:30:31;;;;;;;31.88;16.52;;;;;;;;;;4999544;28;20083;-78
2024/03/08 10:32:56;;;;;;;33.55;17.33;;;;;;;;;;5007375;28;20126;-78
2024/03/08 10:35:22;;;;;;;28.75;14.98;;;;;;;;;;4984644;28;20543;-78
2024/03/08 10:38:03;;;;;;;28.13;14.40;;;;;;;;;;4970231;28;20038;-80
2024/03/08 10:40:32;;;;;;;35.20;15.20;;;;;;;;;;5002979;28;20034;-78
2024/03/08 10:42:59;;;;;;;28.75;14.82;;;;;;;;;;4994565;28;20049;-78
2024/03/08 10:45:25;;;;;;;29.25;14.55;;;;;;;;;;4971935;28;20039;-79
2024/03/08 10:47:55;;;;;;;30.77;15.52;;;;;;;;;;4979170;28;20031;-80
2024/03/08 10:50:21;;;;;;;29.08;15.48;;;;;;;;;;5002537;28;20037;-80
2024/03/08 10:52:51;;;;;;;31.98;14.10;;;;;;;;;;4977132;28;20116;-81
2024/03/08 10:55:22;;;;;;;28.50;15.50;;;;;;;;;;4979723;28;20089;-80
2024/03/08 10:57:48;;;;;;;29.05;15.27;;;;;;;;;;5005656;28;20048;-80
2024/03/08 11:00:14;;;;;;;29.88;15.38;;;;;;;;;;4984948;28;20034;-79
2024/03/08 11:02:44;;;;;;;26.92;14.45;;;;;;;;;;5001720;28;20034;-79
2024/03/08 11:05:12;;;;;;;26.40;14.98;;;;;;;;;;5001315;28;20085;-79
2024/03/08 11:07:40;;;;;;;32.50;14.88;;;;;;;;;;4970151;28;20475;-79
2024/03/08 11:10:10;;;;;;;28.58;14.07;;;;;;;;;;5003639;28;20057;-79
2024/03/08 11:12:39;;;;;;;27.90;15.40;;;;;;;;;;4988042;28;20035;-79
2024/03/08 11:15:13;;;;;;;29.63;15.55;;;;;;;;;;5003974;28;20061;-80
2024/03/08 11:17:39;;;;;;;29.85;15.63;;;;;;;;;;4990282;28;20030;-79
2024/03/08 11:20:20;;;;;;;28.95;15.43;;;;;;;;;;5015413;28;20087;-80
2024/03/08 11:23:00;;;;;;;37.28;16.67;;;;;;;;;;5020333;28;20038;-80
2024/03/08 11:25:32;;;;;;;25.67;15.05;;;;;;;;;;4971250;28;20379;-79
2024/03/08 11:28:06;;;;;;;25.05;14.13;;;;;;;;;;4999542;28;20026;-79
2024/03/08 11:30:32;;;;;;;25.77;13.82;;;;;;;;;;4982190;28;20036;-78
2024/03/08 11:33:01;;;;;;;26.52;14.85;;;;;;;;;;4975833;28;20105;-80
2024/03/08 11:35:27;;;;;;;25.25;13.60;;;;;;;;;;4996944;28;20101;-79
2024/03/08 11:37:52;;;;;;;26.48;14.40;;;;;;;;;;5007012;28;20497;-79
2024/03/08 11:40:19;;;;;;;28.13;14.57;;;;;;;;;;5010060;28;20026;-80
2024/03/08 11:42:47;;;;;;;27.35;14.75;;;;;;;;;;4991497;28;20045;-79
2024/03/08 11:45:13;;;;;;;26.33;13.83;;;;;;;;;;5002140;28;20034;-80
2024/03/08 11:47:41;;;;;;;20.92;13.05;;;;;;;;;;4999361;28;20286;-79
2024/03/08 11:50:10;;;;;;;27.95;14.63;;;;;;;;;;5001611;28;20061;-79
2024/03/08 11:52:36;;;;;;;23.50;14.00;;;;;;;;;;5008440;28;20088;-80
2024/03/08 11:55:02;;;;;;;25.90;14.27;;;;;;;;;;5003637;28;20034;-79
2024/03/08 11:57:28;;;;;;;26.27;13.35;;;;;;;;;;5003404;28;20389;-79
2024/03/08 11:59:58;;;;;;;28.23;14.00;;;;;;;;;;4983005;28;20057;-79
2024/03/08 12:02:24;;;;;;;24.02;13.82;;;;;;;;;;5006306;28;20458;-79
2024/03/08 12:04:57;;;;;;;21.73;13.55;;;;;;;;;;4981912;28;20088;-79
2024/03/08 12:07:23;;;;;;;23.95;14.27;;;;;;;;;;4972737;28;20043;-78
2024/03/08 12:10:12;;;;;;;24.92;14.43;;;;;;;;;;5000747;28;20058;-79
2024/03/08 12:12:39;;;;;;;25.83;14.63;;;;;;;;;;5000787;28;20062;-79
2024/03/08 12:15:04;;;;;;;24.83;14.60;;;;;;;;;;5005279;28;20038;-79
2024/03/08 12:17:30;;;;;;;25.35;14.98;;;;;;;;;;4982686;28;20030;-78
2024/03/08 12:19:55;;;;;;;24.48;13.90;;;;;;;;;;4975083;28;20065;-78
2024/03/08 12:22:25;;;;;;;25.30;13.65;;;;;;;;;;4998492;28;20061;-78
2024/03/08 12:25:05;;;;;;;29.40;15.00;;;;;;;;;;4998148;28;20496;-78
2024/03/08 12:27:31;;;;;;;23.60;14.27;;;;;;;;;;4985263;28;20104;-79
2024/03/08 12:29:57;;;;;;;26.08;14.38;;;;;;;;;;5008614;28;20030;-78
2024/03/08 12:32:23;;;;;;;25.38;14.57;;;;;;;;;;4991372;28;20038;-78
2024/03/08 12:34:53;;;;;;;23.17;14.15;;;;;;;;;;4998561;28;20069;-78
2024/03/08 12:37:18;;;;;;;26.35;14.10;;;;;;;;;;4960213;28;20409;-80
2024/03/08 12:39:44;;;;;;;25.73;14.80;;;;;;;;;;4985817;28;20023;-79
2024/03/08 12:42:09;;;;;;;28.38;15.18;;;;;;;;;;5006002;28;20083;-81
2024/03/08 12:44:35;;;;;;;27.02;15.32;;;;;;;;;;5007983;28;20095;-80
2024/03/08 12:47:01;;;;;;;27.65;16.40;;;;;;;;;;5003936;28;20050;-80
2024/03/08 12:49:27;;;;;;;26.42;14.43;;;;;;;;;;4986035;28;20038;-79
2024/03/08 12:51:52;;;;;;;23.70;13.98;;;;;;;;;;4999343;28;20035;-80
2024/03/08 12:54:18;;;;;;;29.67;14.63;;;;;;;;;;4986457;28;20034;-79
2024/03/08 12:56:43;;;;;;;28.35;14.93;;;;;;;;;;4973298;28;20126;-79
2024/03/08 12:59:10;;;;;;;24.75;14.38;;;;;;;;;;5018720;28;20109;-78
2024/03/08 13:01:38;;;;;;;26.83;15.38;;;;;;;;;;5004185;28;20023;-79
2024/03/08 13:04:06;;;;;;;27.48;14.95;;;;;;;;;;5020241;28;20018;-81
2024/03/08 13:06:31;;;;;;;24.65;14.38;;;;;;;;;;5003615;28;20026;-80
2024/03/08 13:08:57;;;;;;;23.58;15.32;;;;;;;;;;5036806;28;20042;-80
2024/03/08 13:11:24;;;;;;;30.58;17.88;;;;;;;;;;4982398;28;20030;-80
2024/03/08 13:13:50;;;;;;;26.17;16.65;;;;;;;;;;4979869;28;20045;-81
2024/03/08 13:16:18;;;;;;;25.35;15.25;;;;;;;;;;5005657;28;20057;-79
2024/03/08 13:18:45;;;;;;;27.10;15.48;;;;;;;;;;5004214;28;20098;-79
2024/03/08 13:21:12;;;;;;;26.52;15.90;;;;;;;;;;5008056;28;20057;-80
2024/03/08 13:23:45;;;;;;;28.25;17.15;;;;;;;;;;4991936;28;20041;-80
2024/03/08 13:26:17;;;;;;;29.50;16.63;;;;;;;;;;4995337;28;20042;-79
2024/03/08 13:28:43;;;;;;;26.88;16.48;;;;;;;;;;5003642;28;20030;-80
2024/03/08 13:31:12;;;;;;;27.05;16.20;;;;;;;;;;5007748;28;20041;-80
2024/03/08 13:33:42;;;;;;;28.30;16.23;;;;;;;;;;4972644;28;20035;-79
2024/03/08 13:36:20;;;;;;;25.50;15.85;;;;;;;;;;4993676;28;20066;-79
2024/03/08 13:38:58;;;;;;;30.40;17.15;;;;;;;;;;5008875;28;20030;-79
2024/03/08 13:41:27;;;;;;;27.75;16.63;;;;;;;;;;4987172;28;20097;-80
2024/03/08 13:43:55;;;;;;;28.33;16.60;;;;;;;;;;4987768;28;20034;-79
2024/03/08 13:46:21;;;;;;;28.13;17.77;;;;;;;;;;5001000;28;20105;-80
2024/03/08 13:48:51;;;;;;;31.63;16.67;;;;;;;;;;4986531;28;20069;-81
2024/03/08 13:51:17;;;;;;;28.83;16.02;;;;;;;;;;4985567;28;20031;-81
2024/03/08 13:53:42;;;;;;;25.08;16.67;;;;;;;;;;4971992;28;20065;-79
2024/03/08 13:56:10;;;;;;;27.00;16.08;;;;;;;;;;4985342;28;20038;-81
2024/03/08 13:58:36;;;;;;;29.17;15.90;;;;;;;;;;5001457;28;20129;-78
2024/03/08 14:01:03;;;;;;;26.10;15.75;;;;;;;;;;4978067;28;20073;-82
2024/03/08 14:03:29;;;;;;;25.52;16.25;;;;;;;;;;4980445;28;20039;-79
2024/03/08 14:05:55;;;;;;;24.98;15.60;;;;;;;;;;4990156;28;20034;-80
2024/03/08 14:08:21;;;;;;;26.17;16.10;;;;;;;;;;4981514;28;20374;-81
2024/03/08 14:10:48;;;;;;;29.65;16.90;;;;;;;;;;4981845;28;20050;-81
2024/03/08 14:13:16;;;;;;;24.05;15.27;;;;;;;;;;4969065;28;20034;-82
2024/03/08 14:15:42;;;;;;;26.38;16.90;;;;;;;;;;4971439;28;20054;-79
2024/03/08 14:18:08;;;;;;;24.70;16.42;;;;;;;;;;4980378;28;20061;-82
2024/03/08 14:20:34;;;;;;;26.63;16.75;;;;;;;;;;5018049;28;20385;-81
2024/03/08 14:22:59;;;;;;;29.45;17.08;;;;;;;;;;4991997;28;20125;-80
2024/03/08 14:25:25;;;;;;;27.50;17.10;;;;;;;;;;5003901;28;20030;-81
2024/03/08 14:27:58;;;;;;;28.00;16.83;;;;;;;;;;4996578;28;20136;-79
2024/03/08 14:30:34;;;;;;;28.90;18.00;;;;;;;;;;4982480;28;20478;-79
2024/03/08 14:33:05;;;;;;;25.23;15.27;;;;;;;;;;4999139;28;20050;-80